Time;durP1;ratioP1;P1;durP2;ratioP2;P2;SDS_P1;SDS_P2;PMS_P1;PMS_P2;Temp;Humidity;BMP_temperature;BMP_pressure;BME280_temperature;BME280_humidity;BME280_pressure;Samples;Min_cycle;Max_cycle;Signal;HPM_P1;HPM_P2
2021/11/25 00:00:45;;;;;;;15.30;11.05;;;;;;;2.67;68.88;100217.58;1681610;84;21109;-71
2021/11/25 00:03:12;;;;;;;;;;;;;;;2.67;68.85;100215.41;1701379;84;21121;-71
2021/11/25 00:05:38;;;;;;;18.23;12.78;;;;;;;2.65;68.96;100216.14;1679693;84;20407;-71
2021/11/25 00:08:06;;;;;;;18.27;12.33;;;;;;;2.55;69.21;100219.77;1705407;83;21015;-71
2021/11/25 00:10:35;;;;;;;17.95;12.25;;;;;;;2.55;69.34;100221.12;1684522;84;21161;-71
2021/11/25 00:13:02;;;;;;;15.18;10.93;;;;;;;2.57;69.35;100217.69;1701217;84;21050;-71
2021/11/25 00:15:28;;;;;;;16.07;11.12;;;;;;;2.61;69.20;100222.97;1703068;84;21049;-71
2021/11/25 00:17:55;;;;;;;15.35;11.45;;;;;;;2.60;69.25;100221.30;1670202;85;21109;-71
2021/11/25 00:20:22;;;;;;;19.45;12.15;;;;;;;2.58;69.27;100224.22;1699616;83;21063;-71
2021/11/25 00:22:48;;;;;;;17.40;12.65;;;;;;;2.53;69.45;100221.31;1700985;84;21077;-71
2021/11/25 00:25:14;;;;;;;16.93;11.90;;;;;;;2.52;69.52;100210.25;1700866;84;21133;-71
2021/11/25 00:27:41;;;;;;;17.67;11.80;;;;;;;2.57;69.48;100215.84;1677432;85;21050;-72
2021/11/25 00:30:10;;;;;;;19.65;12.33;;;;;;;2.61;69.39;100212.21;1723750;82;21126;-71
2021/11/25 00:32:39;;;;;;;16.60;11.85;;;;;;;2.63;69.39;100205.58;1700172;84;21042;-71
2021/11/25 00:35:06;;;;;;;16.57;11.95;;;;;;;2.63;69.47;100212.81;1665429;85;21149;-71
2021/11/25 00:37:34;;;;;;;17.55;12.18;;;;;;;2.62;69.53;100212.02;1709184;83;21085;-71
2021/11/25 00:40:00;;;;;;;17.92;12.68;;;;;;;2.57;69.61;100217.69;1700505;84;21070;-71
2021/11/25 00:42:27;;;;;;;17.62;11.73;;;;;;;2.58;69.67;100213.47;1673960;85;21018;-71
2021/11/25 00:44:54;;;;;;;18.23;11.65;;;;;;;2.64;69.60;100210.45;1698154;84;21073;-71
2021/11/25 00:47:20;;;;;;;13.58;10.75;;;;;;;2.70;69.49;100213.13;1675940;85;21094;-71
2021/11/25 00:49:47;;;;;;;16.32;12.37;;;;;;;2.72;69.48;100207.03;1698956;84;21178;-71
2021/11/25 00:52:13;;;;;;;20.57;12.43;;;;;;;2.72;69.59;100208.89;1679962;85;21507;-71
2021/11/25 00:54:41;;;;;;;18.37;12.95;;;;;;;2.70;69.60;100205.57;1715053;83;21046;-71
2021/11/25 00:57:07;;;;;;;17.42;12.95;;;;;;;2.67;69.69;100204.65;1714030;83;21023;-71
2021/11/25 00:59:34;;;;;;;18.12;13.08;;;;;;;2.66;69.78;100201.12;1685053;85;21116;-71
2021/11/25 01:02:00;;;;;;;16.97;11.75;;;;;;;2.67;69.78;100194.73;1684358;85;21080;-71
2021/11/25 01:04:26;;;;;;;17.57;12.07;;;;;;;2.73;69.71;100201.14;1681047;85;21121;-71
2021/11/25 01:06:53;;;;;;;15.58;11.35;;;;;;;2.78;69.62;100204.02;1690566;85;21008;-71
2021/11/25 01:09:19;;;;;;;18.73;12.68;;;;;;;2.76;69.64;100194.83;1674768;85;21118;-71
2021/11/25 01:11:46;;;;;;;17.27;11.80;;;;;;;2.72;69.73;100199.48;1691814;85;21042;-71
2021/11/25 01:14:15;;;;;;;18.98;12.58;;;;;;;2.70;69.86;100194.81;1682871;85;21082;-71
2021/11/25 01:16:42;;;;;;;19.17;13.03;;;;;;;2.67;69.96;100188.52;1689359;85;21114;-71
2021/11/25 01:19:09;;;;;;;18.07;12.65;;;;;;;2.69;69.99;100195.88;1679770;85;21561;-71
2021/11/25 01:21:36;;;;;;;18.30;12.43;;;;;;;2.73;69.90;100195.77;1664680;85;21106;-70
2021/11/25 01:24:03;;;;;;;;;;;;;;;2.78;69.80;100189.23;1689982;85;21156;-71
2021/11/25 01:26:29;;;;;;;21.12;12.13;;;;;;;2.78;69.80;100190.06;1720251;82;20112;-71
2021/11/25 01:28:56;;;;;;;17.55;12.50;;;;;;;2.70;70.07;100193.47;1681289;85;21072;-70
2021/11/25 01:31:22;;;;;;;16.87;12.25;;;;;;;2.67;70.16;100183.98;1687588;85;21054;-71
2021/11/25 01:33:49;;;;;;;19.07;12.45;;;;;;;2.67;70.23;100184.48;1667883;85;21046;-71
2021/11/25 01:36:15;;;;;;;19.50;13.90;;;;;;;2.65;70.27;100182.03;1667840;85;21098;-71
2021/11/25 01:38:42;;;;;;;19.15;12.68;;;;;;;2.67;70.25;100180.45;1691982;84;21058;-70
2021/11/25 01:41:08;;;;;;;18.92;12.45;;;;;;;2.73;70.16;100177.75;1677475;84;21062;-71
2021/11/25 01:43:38;;;;;;;20.17;13.35;;;;;;;2.75;70.12;100173.52;1686039;85;21033;-71
2021/11/25 01:46:12;;;;;;;19.98;13.65;;;;;;;2.72;70.25;100176.13;1686047;84;21069;-71
2021/11/25 01:48:39;;;;;;;21.50;13.93;;;;;;;2.70;70.34;100181.38;1684835;84;20979;-71
2021/11/25 01:51:06;;;;;;;23.12;14.30;;;;;;;2.68;70.45;100182.95;1688827;85;21075;-71
2021/11/25 01:55:17;;;;;;;23.73;15.83;;;;;;;2.73;70.54;100182.33;1799049;78;22729;-72
2021/11/25 01:57:43;;;;;;;24.65;16.10;;;;;;;2.69;70.61;100189.16;1728477;82;20971;-71
2021/11/25 02:00:17;;;;;;;27.27;16.20;;;;;;;2.75;70.48;100191.83;1752446;82;21070;-72
2021/11/25 02:02:44;;;;;;;27.48;16.17;;;;;;;2.76;70.52;100183.25;1732259;82;21019;-72
2021/11/25 02:05:11;;;;;;;23.67;15.05;;;;;;;2.72;70.65;100184.70;1752624;82;21062;-72
2021/11/25 02:07:37;;;;;;;;;;;;;;;2.70;70.76;100181.38;1753540;82;21514;-72
2021/11/25 02:10:05;;;;;;;23.12;15.53;;;;;;;2.66;70.89;100180.97;1750838;82;20098;-71
2021/11/25 02:12:32;;;;;;;28.38;16.30;;;;;;;2.58;71.14;100187.94;1741633;82;21568;-72
2021/11/25 02:14:58;;;;;;;21.60;14.58;;;;;;;2.61;71.12;100180.79;1730949;82;21688;-71
2021/11/25 02:17:25;;;;;;;21.60;14.87;;;;;;;2.67;70.99;100189.34;1741668;82;21589;-71
2021/11/25 02:19:51;;;;;;;20.48;14.07;;;;;;;2.68;71.15;100187.50;1734781;82;21620;-72
2021/11/25 02:22:18;;;;;;;22.77;15.38;;;;;;;2.68;71.15;100187.50;1736781;82;21019;-72
2021/11/25 02:24:44;;;;;;;21.55;15.13;;;;;;;2.66;71.18;100191.72;1723796;82;21054;-71
2021/11/25 02:27:12;;;;;;;21.35;14.65;;;;;;;2.64;71.25;100189.77;1724337;82;21090;-72
2021/11/25 02:29:40;;;;;;;23.25;15.45;;;;;;;2.63;71.32;100184.59;1729267;82;21108;-71
2021/11/25 02:32:08;;;;;;;18.67;13.43;;;;;;;2.65;71.34;100186.06;1745897;81;21011;-72
2021/11/25 02:34:34;;;;;;;18.60;13.32;;;;;;;2.71;71.27;100180.34;1737860;82;21003;-72
2021/11/25 02:37:01;;;;;;;17.40;13.55;;;;;;;2.76;70.99;100184.59;1738011;82;20999;-72
2021/11/25 02:39:27;;;;;;;19.20;13.00;;;;;;;2.76;70.99;100184.59;1744893;82;21038;-72
2021/11/25 02:41:53;;;;;;;18.65;13.35;;;;;;;2.73;71.35;100187.70;1744534;82;20975;-72
2021/11/25 02:44:20;;;;;;;18.65;13.45;;;;;;;2.67;71.46;100182.63;1742095;82;21210;-72
2021/11/25 02:46:51;;;;;;;17.90;13.28;;;;;;;2.65;71.59;100179.85;1748367;82;21062;-71
2021/11/25 02:49:17;;;;;;;21.48;14.63;;;;;;;2.64;71.66;100178.19;1738531;82;21378;-71
2021/11/25 02:51:44;;;;;;;21.10;14.83;;;;;;;2.66;71.67;100168.08;1748757;82;21397;-71
2021/11/25 02:54:10;;;;;;;19.20;14.33;;;;;;;2.71;71.55;100176.31;1739834;81;21055;-72
2021/11/25 02:56:37;;;;;;;;;;;;;;;2.74;71.49;100177.23;1719291;82;21087;-71
2021/11/25 02:59:03;;;;;;;18.50;13.30;;;;;;;2.76;71.52;100181.39;1722131;82;20101;-71
2021/11/25 03:01:36;;;;;;;19.75;14.33;;;;;;;2.67;71.79;100171.05;1713448;82;21040;-72
2021/11/25 03:04:03;;;;;;;18.75;13.68;;;;;;;2.64;71.95;100172.30;1716697;82;21091;-71
2021/11/25 03:06:31;;;;;;;21.40;15.40;;;;;;;2.62;72.02;100164.98;1717791;82;21020;-72
2021/11/25 03:08:57;;;;;;;21.77;15.00;;;;;;;2.64;72.04;100172.30;1714593;82;21434;-72
2021/11/25 03:11:26;;;;;;;22.77;15.13;;;;;;;2.70;71.92;100171.45;1711700;82;21106;-71
2021/11/25 03:13:56;;;;;;;20.68;14.80;;;;;;;2.73;71.84;100169.69;1715498;82;21047;-71
2021/11/25 03:16:24;;;;;;;22.42;15.20;;;;;;;2.73;71.93;100170.23;1710120;82;21062;-72
2021/11/25 03:18:51;;;;;;;22.35;14.83;;;;;;;2.71;72.03;100173.63;1729761;82;21075;-72
2021/11/25 03:21:18;;;;;;;21.95;16.12;;;;;;;2.68;72.16;100173.54;1731612;82;21020;-72
2021/11/25 03:23:47;;;;;;;21.48;15.18;;;;;;;2.66;72.19;100168.88;1729435;82;21122;-72
2021/11/25 03:26:15;;;;;;;22.32;15.13;;;;;;;2.67;72.18;100171.88;1730700;82;21115;-70
2021/11/25 03:28:43;;;;;;;20.68;14.60;;;;;;;2.73;72.06;100162.16;1716837;82;21099;-71
2021/11/25 03:31:12;;;;;;;18.65;14.35;;;;;;;2.77;71.98;100158.82;1725272;82;21589;-72
2021/11/25 03:33:39;;;;;;;19.00;14.45;;;;;;;2.78;71.97;100157.80;1737926;82;21602;-71
2021/11/25 03:36:07;;;;;;;23.73;15.13;;;;;;;2.75;72.06;100159.56;1736376;82;21574;-72
2021/11/25 03:38:33;;;;;;;19.07;14.43;;;;;;;2.73;72.17;100154.90;1731237;82;21008;-71
2021/11/25 03:41:01;;;;;;;22.00;15.48;;;;;;;2.71;72.28;100153.47;1723993;82;21062;-72
2021/11/25 03:43:27;;;;;;;25.05;16.52;;;;;;;2.66;72.34;100159.47;1732054;82;21051;-71
2021/11/25 03:45:54;;;;;;;21.07;15.58;;;;;;;2.72;72.32;100156.47;1714395;82;21058;-72
2021/11/25 03:48:23;;;;;;;;;;;;;;;2.72;72.32;100156.47;1723408;82;20984;-71
2021/11/25 03:50:50;;;;;;;19.85;14.20;;;;;;;2.74;72.19;100159.25;1722240;82;20453;-72
2021/11/25 03:53:17;;;;;;;22.27;15.65;;;;;;;2.73;72.29;100160.27;1719236;82;21059;-72
2021/11/25 03:55:44;;;;;;;21.40;14.83;;;;;;;2.75;72.32;100161.42;1725950;82;21549;-71
2021/11/25 03:58:10;;;;;;;23.10;15.75;;;;;;;2.71;72.45;100162.36;1711969;82;20996;-71
2021/11/25 04:00:38;;;;;;;20.62;15.63;;;;;;;2.69;72.54;100163.11;1724908;82;21056;-72
2021/11/25 04:03:04;;;;;;;23.30;15.93;;;;;;;2.67;72.62;100157.61;1739413;81;21508;-72
2021/11/25 04:05:32;;;;;;;21.57;15.65;;;;;;;2.65;72.69;100148.43;1709717;82;21079;-71
2021/11/25 04:08:00;;;;;;;23.25;15.38;;;;;;;2.70;72.62;100160.70;1709992;82;21000;-71
2021/11/25 04:10:27;;;;;;;22.62;15.45;;;;;;;2.76;72.47;100156.36;1712626;82;21075;-72
2021/11/25 04:12:53;;;;;;;20.12;14.43;;;;;;;2.82;72.36;100159.54;1726304;82;20979;-72
2021/11/25 04:15:20;;;;;;;21.52;14.90;;;;;;;2.82;72.33;100152.82;1722725;82;21044;-71
2021/11/25 04:17:46;;;;;;;21.77;15.53;;;;;;;2.81;72.41;100153.34;1716313;82;21003;-72
2021/11/25 04:20:13;;;;;;;20.70;15.65;;;;;;;2.78;72.49;100154.27;1709975;82;21031;-72
2021/11/25 04:22:39;;;;;;;;;;;;;;;2.76;72.54;100151.81;1734237;82;21011;-72
2021/11/25 04:25:08;;;;;;;24.05;15.40;;;;;;;2.75;72.60;100152.84;1733580;82;20104;-71
2021/11/25 04:27:35;;;;;;;26.95;16.60;;;;;;;2.68;72.76;100151.20;1724241;82;21669;-68
2021/11/25 04:35:33;;;;;;;25.60;16.52;;;;;;;2.77;72.54;100141.86;1725788;82;20988;-71
2021/11/25 04:38:09;;;;;;;26.12;17.85;;;;;;;2.73;72.67;100146.03;1727926;82;21039;-71
2021/11/25 04:40:40;;;;;;;24.18;16.87;;;;;;;2.68;72.77;100145.31;1721006;82;21108;-71
2021/11/25 04:43:07;;;;;;;23.10;16.70;;;;;;;2.67;72.82;100140.14;1729822;82;21450;-71
2021/11/25 04:45:35;;;;;;;23.80;16.55;;;;;;;2.68;72.82;100153.89;1716095;82;21039;-72
2021/11/25 04:48:02;;;;;;;21.93;15.95;;;;;;;2.74;72.68;100145.80;1719737;82;21480;-72
2021/11/25 04:50:28;;;;;;;21.23;15.80;;;;;;;2.81;72.57;100139.06;1738989;82;21052;-73
2021/11/25 04:52:55;;;;;;;19.92;15.25;;;;;;;2.83;72.51;100142.38;1731542;82;21035;-72
2021/11/25 04:55:22;;;;;;;21.30;15.63;;;;;;;2.80;72.57;100134.74;1723308;82;21102;-72
2021/11/25 04:57:48;;;;;;;23.25;16.20;;;;;;;2.77;72.66;100140.52;1744057;82;20987;-72
2021/11/25 05:00:16;;;;;;;23.57;16.07;;;;;;;2.75;72.73;100131.85;1732001;82;21122;-73
2021/11/25 05:02:42;;;;;;;24.00;16.07;;;;;;;2.73;72.78;100125.88;1738425;82;21022;-73
2021/11/25 05:05:09;;;;;;;25.85;15.75;;;;;;;2.80;72.48;100127.48;1738635;82;21083;-73
2021/11/25 05:07:36;;;;;;;24.18;16.23;;;;;;;2.80;72.48;100127.48;1752552;82;21028;-72
2021/11/25 05:10:04;;;;;;;21.02;14.75;;;;;;;2.84;72.47;100126.02;1753312;82;21094;-73
2021/11/25 05:12:31;;;;;;;22.70;15.50;;;;;;;2.84;72.46;100119.30;1732926;82;21063;-73
2021/11/25 05:14:57;;;;;;;;;;;;;;;2.82;72.54;100126.77;1734151;82;21094;-72
2021/11/25 05:17:24;;;;;;;22.82;15.80;;;;;;;2.79;72.64;100127.70;1723561;82;20131;-72
2021/11/25 05:19:52;;;;;;;21.05;15.10;;;;;;;2.70;72.86;100132.98;1725950;82;21138;-72
2021/11/25 05:22:20;;;;;;;20.70;15.40;;;;;;;2.67;72.91;100126.70;1738451;82;21554;-73
2021/11/25 05:24:48;;;;;;;22.48;15.68;;;;;;;2.68;72.88;100134.56;1723545;82;21234;-72
2021/11/25 05:27:14;;;;;;;21.93;14.75;;;;;;;2.75;72.74;100135.88;1751431;82;21517;-72
2021/11/25 05:29:40;;;;;;;21.60;15.18;;;;;;;2.79;72.64;100129.05;1753343;82;21486;-73
2021/11/25 05:32:09;;;;;;;18.73;14.05;;;;;;;2.82;72.64;100131.31;1749882;82;21055;-72
2021/11/25 05:34:35;;;;;;;20.40;14.90;;;;;;;2.81;72.68;100126.96;1750788;82;21522;-72
2021/11/25 05:37:02;;;;;;;23.45;16.05;;;;;;;2.77;72.75;100126.56;1747432;82;21046;-72
2021/11/25 05:39:29;;;;;;;23.12;14.90;;;;;;;2.74;72.78;100128.84;1737219;82;21058;-73
2021/11/25 05:41:55;;;;;;;;;;;;;;;2.73;72.81;100129.91;1731910;82;21039;-72
2021/11/25 05:44:22;;;;;;;20.80;14.50;;;;;;;2.77;72.70;100125.73;1723217;83;20113;-73
2021/11/25 05:46:48;;;;;;;17.82;13.28;;;;;;;2.77;72.70;100133.80;1725327;82;21067;-73
2021/11/25 05:49:14;;;;;;;20.30;14.78;;;;;;;2.77;72.70;100129.77;1732988;82;21554;-72
2021/11/25 05:51:41;;;;;;;20.60;14.70;;;;;;;2.72;72.82;100123.70;1723344;83;21633;-73
2021/11/25 05:54:08;;;;;;;20.68;15.18;;;;;;;2.70;72.96;100124.92;1739242;82;21070;-71
2021/11/25 05:56:34;;;;;;;21.02;15.40;;;;;;;2.68;73.04;100124.33;1715778;82;21646;-70
2021/11/25 05:59:01;;;;;;;19.73;13.55;;;;;;;2.69;73.00;100130.02;1749464;82;21072;-69
2021/11/25 06:01:27;;;;;;;18.73;14.07;;;;;;;2.75;72.87;100134.53;1750978;82;21074;-68
2021/11/25 06:03:54;;;;;;;19.23;13.58;;;;;;;2.79;72.79;100124.50;1753224;82;21030;-70
2021/11/25 06:06:21;;;;;;;21.70;14.00;;;;;;;2.81;72.76;100120.23;1751001;82;21074;-70
2021/11/25 06:08:49;;;;;;;17.20;13.05;;;;;;;2.80;72.84;100136.09;1744778;82;21498;-70
2021/11/25 06:11:16;;;;;;;19.65;14.03;;;;;;;2.78;72.90;100126.05;1723829;82;21085;-69
2021/11/25 06:13:45;;;;;;;18.23;13.22;;;;;;;2.76;72.93;100127.62;1723334;83;21039;-69
2021/11/25 06:16:12;;;;;;;18.65;13.38;;;;;;;2.80;72.88;100129.36;1723090;83;21079;-69
2021/11/25 06:18:38;;;;;;;;;;;;;;;2.84;72.69;100132.74;1725644;83;21031;-68
2021/11/25 06:21:05;;;;;;;18.60;12.63;;;;;;;2.88;72.59;100128.59;1723270;83;20113;-69
2021/11/25 06:23:33;;;;;;;17.67;12.13;;;;;;;2.85;72.64;100130.88;1723207;83;21078;-69
2021/11/25 06:26:00;;;;;;;21.42;13.03;;;;;;;2.81;72.73;100133.17;1723180;83;21039;-69
2021/11/25 06:28:27;;;;;;;18.85;13.10;;;;;;;2.78;72.78;100128.22;1723582;83;21007;-69
2021/11/25 06:30:53;;;;;;;;;;;;;;;2.79;72.83;100134.42;1725868;83;21019;-69
2021/11/25 06:33:20;;;;;;;17.40;12.45;;;;;;;2.83;72.79;100139.17;1723350;83;20125;-70
2021/11/25 06:35:46;;;;;;;16.87;12.53;;;;;;;2.86;72.71;100133.38;1723410;83;21110;-69
2021/11/25 06:38:12;;;;;;;;;;;;;;;2.91;72.54;100133.55;1726157;83;20979;-69
2021/11/25 06:40:39;;;;;;;17.65;12.00;;;;;;;2.91;72.55;100130.86;1723320;83;20439;-69
2021/11/25 06:43:07;;;;;;;22.60;13.45;;;;;;;2.84;72.73;100129.22;1723763;83;21518;-69
2021/11/25 06:45:35;;;;;;;18.05;13.30;;;;;;;2.83;72.81;100127.59;1723278;83;21027;-69
2021/11/25 06:48:01;;;;;;;18.73;12.98;;;;;;;2.85;72.75;100125.50;1723340;83;20991;-68
2021/11/25 06:50:28;;;;;;;18.42;12.78;;;;;;;2.90;72.62;100128.39;1723404;83;21098;-69
2021/11/25 06:52:55;;;;;;;18.02;12.37;;;;;;;2.95;72.49;100131.25;1727679;82;21054;-68
2021/11/25 06:55:21;;;;;;;17.80;12.95;;;;;;;2.97;72.50;100130.54;1748646;82;21066;-66
2021/11/25 06:57:50;;;;;;;16.97;12.03;;;;;;;2.96;72.56;100131.05;1725369;82;21066;-67
2021/11/25 07:00:22;;;;;;;19.65;13.50;;;;;;;2.93;72.58;100130.14;1742616;82;21043;-66
2021/11/25 07:02:53;;;;;;;21.10;13.30;;;;;;;2.90;72.66;100131.91;1734677;82;21011;-66
2021/11/25 07:05:18;;;;;;;18.10;12.63;;;;;;;2.96;72.65;100127.53;1750298;82;21024;-65
2021/11/25 07:07:45;;;;;;;19.52;13.13;;;;;;;3.03;72.50;100132.37;1725589;82;21521;-66
2021/11/25 07:10:13;;;;;;;17.55;12.10;;;;;;;3.07;72.43;100134.94;1741900;82;21058;-66
2021/11/25 07:12:41;;;;;;;19.10;13.40;;;;;;;3.07;72.50;100132.25;1751300;82;21018;-66
2021/11/25 07:15:10;;;;;;;20.23;13.40;;;;;;;3.07;72.54;100136.28;1726335;82;21118;-66
2021/11/25 07:17:36;;;;;;;21.45;13.20;;;;;;;3.07;72.52;100138.98;1728021;82;20982;-65
2021/11/25 07:20:05;;;;;;;22.10;13.58;;;;;;;3.13;72.44;100140.80;1730655;82;21530;-66
2021/11/25 07:22:33;;;;;;;18.57;12.18;;;;;;;3.20;72.25;100136.73;1742522;82;20979;-66
2021/11/25 07:25:01;;;;;;;20.05;12.53;;;;;;;3.26;72.07;100136.70;1741041;82;21589;-65
2021/11/25 07:27:28;;;;;;;19.12;12.47;;;;;;;3.27;72.05;100135.67;1738750;82;21035;-66
2021/11/25 07:29:55;;;;;;;;;;;;;;;3.23;72.05;100131.75;1725792;83;21094;-66
2021/11/25 07:32:21;;;;;;;18.67;12.18;;;;;;;3.21;72.05;100135.70;1723019;83;20550;-67
2021/11/25 07:34:47;;;;;;;15.98;12.10;;;;;;;3.12;72.26;100140.49;1729732;82;21109;-66
2021/11/25 07:37:14;;;;;;;17.67;12.60;;;;;;;3.14;72.20;100141.13;1738461;82;21058;-66
2021/11/25 07:39:40;;;;;;;17.62;12.95;;;;;;;3.21;72.07;100140.57;1753372;82;21481;-66
2021/11/25 07:42:07;;;;;;;18.73;13.40;;;;;;;3.24;71.98;100141.48;1732069;82;20979;-66
2021/11/25 07:44:34;;;;;;;19.32;13.50;;;;;;;3.23;72.05;100140.34;1748614;82;21465;-67
2021/11/25 07:47:00;;;;;;;;;;;;;;;3.21;72.16;100136.53;1749585;82;20968;-65
2021/11/25 07:49:27;;;;;;;20.60;13.28;;;;;;;3.21;72.15;100139.23;1730360;82;20152;-65
2021/11/25 07:51:59;;;;;;;20.50;13.72;;;;;;;3.23;72.14;100133.09;1729417;82;21067;-66
2021/11/25 07:54:22;;;;;;;18.20;13.22;;;;;;;3.30;72.00;100134.41;1722845;83;21573;-66
2021/11/25 07:56:48;;;;;;;18.90;13.88;;;;;;;3.29;71.96;100134.12;1745473;82;21070;-66
2021/11/25 07:59:15;;;;;;;20.00;13.30;;;;;;;3.27;72.00;100132.98;1738624;82;20987;-66
2021/11/25 08:01:43;;;;;;;20.00;14.07;;;;;;;3.27;72.06;100128.94;1742169;82;21077;-67
2021/11/25 08:04:10;;;;;;;19.62;13.98;;;;;;;3.27;72.08;100128.94;1737715;82;21018;-68
2021/11/25 08:06:36;;;;;;;22.27;14.20;;;;;;;3.31;71.95;100131.52;1748421;82;21019;-68
2021/11/25 08:09:03;;;;;;;;;;;;;;;3.42;71.68;100129.48;1751003;82;21003;-68
2021/11/25 08:11:29;;;;;;;19.37;13.90;;;;;;;3.47;71.55;100136.38;1723919;82;20387;-67
2021/11/25 08:13:56;;;;;;;19.87;14.00;;;;;;;3.40;71.71;100130.20;1737717;82;21077;-68
2021/11/25 08:16:23;;;;;;;19.70;14.30;;;;;;;3.41;71.73;100140.45;1745734;82;21150;-68
2021/11/25 08:18:51;;;;;;;22.70;14.38;;;;;;;3.41;71.76;100141.28;1748538;82;21027;-68
2021/11/25 08:21:19;;;;;;;20.00;14.23;;;;;;;3.42;71.68;100138.08;1726646;82;21050;-67
2021/11/25 08:23:46;;;;;;;22.10;14.87;;;;;;;3.48;71.66;100132.66;1736251;82;20935;-67
2021/11/25 08:26:12;;;;;;;18.87;13.98;;;;;;;3.55;71.28;100126.39;1732933;80;21011;-68
2021/11/25 08:28:40;;;;;;;23.87;15.05;;;;;;;3.58;71.15;100125.98;1710681;82;21022;-68
2021/11/25 08:31:07;;;;;;;21.65;15.15;;;;;;;3.57;71.31;100120.29;1737015;82;21065;-67
2021/11/25 08:33:35;;;;;;;22.25;14.87;;;;;;;3.59;71.33;100120.89;1745920;82;21015;-68
2021/11/25 08:36:01;;;;;;;23.18;15.48;;;;;;;3.60;71.33;100115.30;1737386;82;21051;-68
2021/11/25 08:38:32;;;;;;;21.75;14.93;;;;;;;3.66;71.22;100119.80;1723628;82;21003;-68
2021/11/25 08:40:59;;;;;;;20.97;14.43;;;;;;;3.78;71.14;100114.55;1738408;82;21051;-67
2021/11/25 08:43:25;;;;;;;19.90;14.68;;;;;;;3.86;70.96;100112.39;1749146;82;21015;-68
2021/11/25 08:45:52;;;;;;;23.18;14.75;;;;;;;3.90;70.71;100111.44;1732685;82;21015;-69
2021/11/25 08:48:18;;;;;;;21.12;14.30;;;;;;;3.91;70.73;100107.19;1724739;82;21623;-67
2021/11/25 08:50:45;;;;;;;18.92;14.43;;;;;;;3.90;70.53;100101.49;1735023;82;21567;-68
2021/11/25 08:53:12;;;;;;;;;;;;;;;3.88;70.42;100100.91;1725962;83;20963;-68
2021/11/25 08:55:39;;;;;;;18.15;13.15;;;;;;;3.91;70.49;100102.32;1736430;82;20130;-68
2021/11/25 08:58:05;;;;;;;18.40;13.50;;;;;;;3.90;70.45;100098.80;1739223;82;21004;-67
2021/11/25 09:00:33;;;;;;;21.07;14.30;;;;;;;4.00;70.27;100095.63;1736007;82;21070;-67
2021/11/25 09:03:01;;;;;;;18.25;13.35;;;;;;;4.11;70.03;100091.39;1746481;82;21046;-68
2021/11/25 09:05:29;;;;;;;18.62;13.53;;;;;;;4.12;69.74;100089.80;1741079;80;21170;-67
2021/11/25 09:07:56;;;;;;;21.23;13.80;;;;;;;4.10;69.67;100083.83;1756945;80;21609;-67
2021/11/25 09:10:23;;;;;;;19.17;13.53;;;;;;;4.10;69.65;100087.04;1767513;80;21093;-67
2021/11/25 09:12:50;;;;;;;18.20;12.93;;;;;;;4.11;69.65;100078.72;1736532;82;21483;-68
2021/11/25 09:15:17;;;;;;;16.32;12.35;;;;;;;4.20;69.61;100080.63;1732260;82;21128;-67
2021/11/25 09:17:43;;;;;;;17.00;12.07;;;;;;;4.30;69.36;100076.37;1729734;82;21003;-67
2021/11/25 09:20:10;;;;;;;18.05;12.40;;;;;;;4.37;68.99;100067.69;1734500;82;21050;-68
2021/11/25 09:22:38;;;;;;;19.27;12.93;;;;;;;4.37;68.71;100073.60;1725409;82;21472;-68
2021/11/25 09:25:06;;;;;;;17.80;13.40;;;;;;;4.36;68.38;100067.91;1740887;82;21092;-68
2021/11/25 09:27:35;;;;;;;19.25;13.22;;;;;;;4.36;68.35;100066.55;1723383;83;20936;-68
2021/11/25 09:30:01;;;;;;;18.05;12.80;;;;;;;4.38;68.25;100061.78;1724997;82;21515;-68
2021/11/25 09:32:28;;;;;;;18.23;12.63;;;;;;;4.40;68.08;100063.72;1723265;83;21544;-68
2021/11/25 09:34:54;;;;;;;17.45;12.80;;;;;;;4.44;67.74;100058.19;1723343;82;21010;-67
2021/11/25 09:37:20;;;;;;;18.82;12.88;;;;;;;4.49;67.49;100062.39;1723285;83;21562;-67
2021/11/25 09:39:47;;;;;;;;;;;;;;;4.49;67.50;100059.17;1726198;82;21670;-68
2021/11/25 09:42:14;;;;;;;16.10;12.15;;;;;;;4.48;67.42;100057.52;1746128;82;20411;-67
2021/11/25 09:44:41;;;;;;;19.35;13.90;;;;;;;4.45;67.55;100051.75;1723028;82;20995;-68
2021/11/25 09:47:08;;;;;;;17.80;13.13;;;;;;;4.44;67.32;100049.58;1742024;82;21058;-67
2021/11/25 09:49:34;;;;;;;17.15;13.20;;;;;;;4.47;67.42;100054.52;1730747;82;21014;-68
2021/11/25 09:52:01;;;;;;;18.32;13.65;;;;;;;4.57;67.46;100050.48;1708424;84;21552;-67
2021/11/25 09:54:27;;;;;;;18.87;13.83;;;;;;;4.68;67.01;100052.41;1725111;82;20987;-68
2021/11/25 09:56:54;;;;;;;15.13;12.07;;;;;;;4.72;66.63;100049.56;1750122;82;21498;-67
2021/11/25 09:59:20;;;;;;;19.73;14.35;;;;;;;4.70;66.58;100035.49;1740804;82;20995;-68
2021/11/25 10:01:47;;;;;;;19.73;13.53;;;;;;;4.69;66.51;100037.88;1738335;82;21069;-67
2021/11/25 10:04:13;;;;;;;19.23;14.03;;;;;;;4.68;66.48;100034.88;1730995;82;20990;-68
2021/11/25 10:06:56;;;;;;;24.23;17.25;;;;;;;4.69;66.31;100035.19;1722773;82;21088;-67
2021/11/25 10:09:34;;;;;;;20.48;15.53;;;;;;;4.68;65.93;100034.36;1729347;82;21026;-68
2021/11/25 10:12:02;;;;;;;20.72;14.63;;;;;;;4.68;65.72;100033.00;1739518;82;20995;-67
2021/11/25 10:14:37;;;;;;;18.77;13.15;;;;;;;4.74;65.65;100022.69;1735917;82;21003;-67
2021/11/25 10:17:04;;;;;;;19.20;13.70;;;;;;;4.82;65.38;100024.22;1753380;82;21606;-68
2021/11/25 10:19:31;;;;;;;22.62;14.25;;;;;;;4.85;65.17;100020.55;1735977;82;21493;-67
2021/11/25 10:22:00;;;;;;;20.45;13.50;;;;;;;4.85;65.10;100023.24;1748224;82;21526;-67
2021/11/25 10:24:40;;;;;;;18.48;14.55;;;;;;;4.86;65.00;100018.16;1753384;82;20995;-68
2021/11/25 10:27:26;;;;;;;20.10;14.07;;;;;;;4.82;64.57;100008.03;1753262;81;21043;-68
2021/11/25 10:30:16;;;;;;;18.60;13.90;;;;;;;4.83;64.74;100006.47;1750891;82;21008;-67
2021/11/25 10:32:58;;;;;;;18.40;13.75;;;;;;;4.84;64.65;100005.43;1745365;82;21458;-67
2021/11/25 10:35:33;;;;;;;21.30;14.65;;;;;;;4.83;64.50;99994.34;1748579;82;21084;-68
2021/11/25 10:38:24;;;;;;;19.75;13.43;;;;;;;4.83;64.31;99986.77;1734640;82;21110;-67
2021/11/25 10:40:30;;;;;;;17.65;13.62;;;;;;;4.89;64.15;99992.06;1715489;82;21103;-67
2021/11/25 10:42:59;;;;;;;16.62;13.00;;;;;;;4.92;64.20;99990.25;1722903;83;21611;-67
2021/11/25 10:45:25;;;;;;;18.00;13.68;;;;;;;4.94;64.35;99985.99;1730137;82;21019;-67
2021/11/25 10:48:00;;;;;;;19.12;14.43;;;;;;;4.97;64.41;99984.18;1753291;82;21070;-67
2021/11/25 10:50:28;;;;;;;21.25;16.00;;;;;;;4.96;64.07;99974.43;1739172;82;21157;-67
2021/11/25 10:53:05;;;;;;;20.57;15.95;;;;;;;4.94;64.08;99977.38;1723368;83;21040;-67
2021/11/25 10:55:32;;;;;;;19.25;13.58;;;;;;;4.94;64.12;99975.20;1730422;82;21082;-68
2021/11/25 10:58:05;;;;;;;19.75;13.20;;;;;;;4.93;64.11;99965.45;1732293;82;20978;-68
2021/11/25 11:00:36;;;;;;;19.05;13.30;;;;;;;4.94;64.30;99961.71;1745973;82;21549;-68
2021/11/25 11:03:29;;;;;;;18.92;13.53;;;;;;;4.97;64.14;99950.45;1731878;82;21047;-65
2021/11/25 11:06:01;;;;;;;18.27;13.45;;;;;;;5.03;63.92;99949.52;1729845;82;21119;-68
2021/11/25 11:08:31;;;;;;;17.15;12.58;;;;;;;5.05;63.68;99937.17;1714352;82;20947;-67
2021/11/25 11:11:01;;;;;;;18.20;13.32;;;;;;;5.01;63.57;99939.50;1731533;82;21127;-67
2021/11/25 11:13:41;;;;;;;16.90;12.68;;;;;;;4.97;63.49;99939.66;1739013;82;20974;-67
2021/11/25 11:18:56;;;;;;;17.70;12.33;;;;;;;4.88;63.52;99928.92;1749303;81;21007;-67
2021/11/25 11:21:49;;;;;;;17.07;12.30;;;;;;;4.84;63.11;99919.64;1728097;82;21074;-67
2021/11/25 11:24:35;;;;;;;15.15;11.50;;;;;;;4.79;62.89;99922.19;1738129;82;20974;-66
2021/11/25 11:27:02;;;;;;;15.75;10.93;;;;;;;4.72;62.37;99917.41;1729760;82;21054;-65
2021/11/25 11:29:30;;;;;;;15.88;11.68;;;;;;;4.64;61.95;99909.12;1753303;82;21037;-66
2021/11/25 11:32:02;;;;;;;12.93;10.32;;;;;;;4.58;61.70;99911.91;1739782;82;21514;-66
2021/11/25 11:34:29;;;;;;;18.05;11.35;;;;;;;4.53;61.79;99903.98;1741390;82;21019;-65